Time;durP1;ratioP1;P1;durP2;ratioP2;P2;SDS_P1;SDS_P2;PMS_P1;PMS_P2;Temp;Humidity;BMP_temperature;BMP_pressure;BME280_temperature;BME280_humidity;BME280_pressure;Samples;Min_cycle;Max_cycle;Signal;HPM_P1;HPM_P2
2022/10/05 04:01:01;;;;;;;23.98;14.52;;;;;;;;;;5787631;22;20597;-80
2022/10/05 04:03:32;;;;;;;20.92;13.93;;;;;;;;;;5011752;28;20401;-81
2022/10/05 04:06:02;;;;;;;18.55;14.07;;;;;;;;;;5015089;28;20385;-80
2022/10/05 04:08:43;;;;;;;16.40;13.10;;;;;;;;;;5015593;28;20888;-83
2022/10/05 04:11:11;;;;;;;16.53;12.47;;;;;;;;;;5015625;28;20472;-83
2022/10/05 04:13:43;;;;;;;14.88;12.02;;;;;;;;;;5007612;28;20867;-83
2022/10/05 04:16:12;;;;;;;13.57;12.15;;;;;;;;;;5015463;28;20392;-81
2022/10/05 04:18:47;;;;;;;15.70;13.05;;;;;;;;;;5015395;28;20733;-81
2022/10/05 04:21:33;;;;;;;15.13;12.98;;;;;;;;;;5017835;28;20388;-81
2022/10/05 04:24:05;;;;;;;19.05;14.05;;;;;;;;;;5015418;28;20396;-81
2022/10/05 04:26:37;;;;;;;17.38;13.43;;;;;;;;;;5015319;28;20389;-80
2022/10/05 04:29:07;;;;;;;18.05;13.70;;;;;;;;;;5015551;28;20874;-80
2022/10/05 04:31:51;;;;;;;17.50;13.63;;;;;;;;;;5015409;28;20483;-80
2022/10/05 04:34:37;;;;;;;15.88;12.98;;;;;;;;;;5013642;28;20755;-80
2022/10/05 04:37:06;;;;;;;14.85;12.68;;;;;;;;;;5014232;28;20400;-81
2022/10/05 04:39:34;;;;;;;13.68;12.18;;;;;;;;;;5007109;28;20388;-81
2022/10/05 04:42:03;;;;;;;16.77;13.18;;;;;;;;;;5015013;28;20385;-80
2022/10/05 04:44:40;;;;;;;15.65;13.52;;;;;;;;;;5015296;28;20381;-83
2022/10/05 04:47:15;;;;;;;16.75;13.38;;;;;;;;;;4997414;28;20392;-83
2022/10/05 04:49:53;;;;;;;16.80;13.82;;;;;;;;;;5015325;28;20397;-83
2022/10/05 04:52:42;;;;;;;16.33;13.75;;;;;;;;;;5010291;28;20485;-83
2022/10/05 04:55:14;;;;;;;15.88;13.63;;;;;;;;;;4960104;28;20430;-82
2022/10/05 04:57:44;;;;;;;15.85;13.57;;;;;;;;;;4998121;28;20386;-82
2022/10/05 05:00:10;;;;;;;16.80;13.68;;;;;;;;;;4995378;28;20405;-83
2022/10/05 05:02:46;;;;;;;14.98;13.32;;;;;;;;;;4995737;28;20402;-83
2022/10/05 05:05:17;;;;;;;14.80;13.10;;;;;;;;;;4995178;28;20406;-83
2022/10/05 05:07:53;;;;;;;18.88;13.50;;;;;;;;;;4995525;28;20895;-82
2022/10/05 05:10:38;;;;;;;16.63;13.27;;;;;;;;;;5007857;28;20431;-82
2022/10/05 05:13:10;;;;;;;14.70;13.02;;;;;;;;;;5014595;28;20854;-82
2022/10/05 05:16:05;;;;;;;16.30;13.48;;;;;;;;;;5010430;28;20422;-82
2022/10/05 05:18:40;;;;;;;15.45;13.43;;;;;;;;;;4978886;28;20387;-82
2022/10/05 05:21:22;;;;;;;13.88;12.48;;;;;;;;;;4998630;28;20377;-83
2022/10/05 05:23:50;;;;;;;14.27;12.63;;;;;;;;;;5008428;28;20428;-81
2022/10/05 05:26:22;;;;;;;14.75;12.65;;;;;;;;;;5010194;28;20472;-81
2022/10/05 05:28:58;;;;;;;12.20;11.00;;;;;;;;;;5009167;28;20388;-81
2022/10/05 05:31:42;;;;;;;11.05;10.15;;;;;;;;;;5012314;28;20389;-81
2022/10/05 05:34:26;;;;;;;10.52;9.70;;;;;;;;;;5012946;28;20448;-80
2022/10/05 05:36:59;;;;;;;10.18;9.38;;;;;;;;;;5012633;28;20391;-81
2022/10/05 05:39:40;;;;;;;11.55;10.55;;;;;;;;;;5013211;28;20429;-81
2022/10/05 05:42:19;;;;;;;10.80;9.98;;;;;;;;;;5013622;28;20369;-81
2022/10/05 05:44:50;;;;;;;10.90;10.10;;;;;;;;;;5013678;28;20381;-81
2022/10/05 05:47:22;;;;;;;9.68;8.98;;;;;;;;;;5013988;28;20385;-80
2022/10/05 05:50:07;;;;;;;9.52;8.75;;;;;;;;;;5004524;28;20425;-81
2022/10/05 05:52:53;;;;;;;8.80;8.18;;;;;;;;;;5013289;28;20415;-81
2022/10/05 05:55:19;;;;;;;8.50;7.90;;;;;;;;;;5013362;28;20412;-81
2022/10/05 05:57:51;;;;;;;8.38;7.78;;;;;;;;;;5013600;28;20715;-81
2022/10/05 06:00:17;;;;;;;8.23;7.63;;;;;;;;;;5013418;28;20381;-81
2022/10/05 06:02:46;;;;;;;7.80;7.30;;;;;;;;;;5013098;28;20391;-80
2022/10/05 06:05:31;;;;;;;8.25;7.65;;;;;;;;;;5013308;28;20385;-80
2022/10/05 06:08:00;;;;;;;8.88;8.00;;;;;;;;;;5013275;28;20381;-81
2022/10/05 06:10:46;;;;;;;9.52;8.57;;;;;;;;;;5011351;28;21092;-81
2022/10/05 06:13:18;;;;;;;8.88;8.27;;;;;;;;;;5012992;28;20427;-81
2022/10/05 06:15:49;;;;;;;9.07;8.32;;;;;;;;;;4996262;28;20415;-81
2022/10/05 06:18:16;;;;;;;9.38;8.55;;;;;;;;;;4994323;28;20382;-81
2022/10/05 06:21:00;;;;;;;9.05;8.35;;;;;;;;;;4993721;28;20387;-81
2022/10/05 06:23:29;;;;;;;8.73;8.05;;;;;;;;;;4993188;28;20478;-80
2022/10/05 06:26:11;;;;;;;8.60;7.97;;;;;;;;;;5003185;28;20400;-81
2022/10/05 06:28:37;;;;;;;8.73;8.02;;;;;;;;;;4998738;28;20485;-81
2022/10/05 06:31:09;;;;;;;9.43;8.63;;;;;;;;;;5000498;28;20483;-81
2022/10/05 06:33:35;;;;;;;9.03;8.33;;;;;;;;;;4995120;28;20430;-80
2022/10/05 06:36:07;;;;;;;9.55;8.85;;;;;;;;;;5007453;28;20409;-81
2022/10/05 06:38:33;;;;;;;11.98;10.70;;;;;;;;;;5005202;28;20380;-80
2022/10/05 06:41:07;;;;;;;10.10;9.30;;;;;;;;;;5012957;28;20384;-80
2022/10/05 06:43:51;;;;;;;9.93;9.13;;;;;;;;;;5012818;28;20373;-80
2022/10/05 06:46:50;;;;;;;11.05;10.15;;;;;;;;;;5011228;28;20408;-81
2022/10/05 06:49:18;;;;;;;10.80;10.00;;;;;;;;;;4965473;28;20793;-80
2022/10/05 06:51:50;;;;;;;11.87;10.87;;;;;;;;;;5005988;28;20405;-80
2022/10/05 06:54:27;;;;;;;13.25;11.98;;;;;;;;;;5011209;28;20412;-80
2022/10/05 06:56:53;;;;;;;12.47;11.33;;;;;;;;;;5012453;28;21063;-81
2022/10/05 06:59:31;;;;;;;11.75;10.80;;;;;;;;;;5011593;28;20385;-80
2022/10/05 07:02:00;;;;;;;11.40;10.60;;;;;;;;;;5010844;28;20432;-80
2022/10/05 07:04:29;;;;;;;11.65;10.75;;;;;;;;;;5012371;28;20437;-81
2022/10/05 07:07:11;;;;;;;11.67;10.70;;;;;;;;;;5012346;28;20388;-81
2022/10/05 07:09:52;;;;;;;11.40;10.55;;;;;;;;;;5012298;28;20395;-81
2022/10/05 07:12:23;;;;;;;11.18;10.38;;;;;;;;;;5012095;28;20471;-81
2022/10/05 07:15:02;;;;;;;11.80;10.90;;;;;;;;;;5012694;28;20516;-81
2022/10/05 07:17:46;;;;;;;12.23;11.13;;;;;;;;;;5012353;28;20377;-81
2022/10/05 07:20:15;;;;;;;13.07;12.02;;;;;;;;;;5011981;28;20774;-80
2022/10/05 07:22:51;;;;;;;13.75;12.55;;;;;;;;;;5013156;28;20376;-80
2022/10/05 07:25:28;;;;;;;13.30;11.98;;;;;;;;;;5016920;28;20455;-81
2022/10/05 07:28:07;;;;;;;15.52;14.00;;;;;;;;;;5011064;28;20392;-80
2022/10/05 07:30:40;;;;;;;15.45;13.73;;;;;;;;;;5010383;28;20439;-80
2022/10/05 07:33:08;;;;;;;17.20;15.35;;;;;;;;;;5014239;28;20750;-81
2022/10/05 07:38:45;;;;;;;15.80;14.13;;;;;;;;;;5014163;28;20566;-81
2022/10/05 07:41:22;;;;;;;16.50;14.80;;;;;;;;;;5013808;28;20838;-80
2022/10/05 07:44:07;;;;;;;17.27;15.40;;;;;;;;;;5015081;28;20394;-81
2022/10/05 07:46:39;;;;;;;18.48;14.80;;;;;;;;;;5014848;28;20385;-81
2022/10/05 07:49:14;;;;;;;19.98;16.85;;;;;;;;;;5015512;28;20389;-81
2022/10/05 07:51:44;;;;;;;23.13;17.25;;;;;;;;;;5014243;28;20384;-81
2022/10/05 07:54:29;;;;;;;21.42;17.08;;;;;;;;;;5015848;28;20734;-80
2022/10/05 07:57:04;;;;;;;18.10;16.27;;;;;;;;;;5015727;28;20381;-81
2022/10/05 07:59:35;;;;;;;19.20;16.35;;;;;;;;;;5003348;28;20381;-79
2022/10/05 08:02:28;;;;;;;15.23;13.77;;;;;;;;;;5015269;28;20789;-79
2022/10/05 08:05:01;;;;;;;14.60;13.07;;;;;;;;;;5010859;28;20750;-81
2022/10/05 08:07:29;;;;;;;15.68;14.18;;;;;;;;;;5013998;28;20758;-81
2022/10/05 08:09:57;;;;;;;16.63;14.93;;;;;;;;;;5014669;28;20468;-81
2022/10/05 08:12:23;;;;;;;17.35;14.70;;;;;;;;;;5014935;28;20791;-80
2022/10/05 08:14:57;;;;;;;23.33;15.97;;;;;;;;;;5015025;28;20495;-80
2022/10/05 08:17:30;;;;;;;17.27;15.30;;;;;;;;;;5015169;28;20388;-80
2022/10/05 08:20:05;;;;;;;15.70;14.30;;;;;;;;;;5007837;28;20380;-80
2022/10/05 08:22:38;;;;;;;16.58;14.98;;;;;;;;;;5010499;28;20389;-80
2022/10/05 08:25:14;;;;;;;19.63;16.83;;;;;;;;;;5013662;28;20380;-82
2022/10/05 08:27:49;;;;;;;16.73;14.95;;;;;;;;;;5014695;28;20402;-81
2022/10/05 08:30:16;;;;;;;17.70;15.85;;;;;;;;;;5003702;28;20391;-82
2022/10/05 08:33:04;;;;;;;24.98;19.80;;;;;;;;;;4996817;28;20868;-81
2022/10/05 08:35:54;;;;;;;29.45;21.98;;;;;;;;;;5012059;28;20432;-82
2022/10/05 08:38:24;;;;;;;19.90;17.00;;;;;;;;;;4996672;28;20470;-82
2022/10/05 08:41:09;;;;;;;18.20;16.38;;;;;;;;;;5010229;28;20438;-82
2022/10/05 08:43:41;;;;;;;16.67;15.18;;;;;;;;;;4996821;28;20744;-82
2022/10/05 08:46:17;;;;;;;16.45;14.85;;;;;;;;;;5015287;28;20393;-81
2022/10/05 08:48:46;;;;;;;19.20;17.20;;;;;;;;;;5014835;28;20396;-81
2022/10/05 08:51:22;;;;;;;22.10;17.30;;;;;;;;;;5015131;28;20381;-82
2022/10/05 08:53:51;;;;;;;17.33;15.65;;;;;;;;;;5014842;28;20385;-82
2022/10/05 08:56:36;;;;;;;18.55;16.65;;;;;;;;;;4999191;28;20410;-81
2022/10/05 08:59:17;;;;;;;18.17;16.15;;;;;;;;;;5012417;28;20376;-81
2022/10/05 09:01:43;;;;;;;16.60;15.10;;;;;;;;;;5014493;28;20878;-82
2022/10/05 09:04:28;;;;;;;16.52;15.07;;;;;;;;;;5014577;28;20878;-82
2022/10/05 09:06:54;;;;;;;17.02;15.18;;;;;;;;;;5014663;28;20380;-82
2022/10/05 09:09:39;;;;;;;15.07;13.77;;;;;;;;;;5014538;28;20858;-82
2022/10/05 09:12:11;;;;;;;16.27;14.68;;;;;;;;;;5015567;28;20416;-81
2022/10/05 09:14:53;;;;;;;16.10;14.52;;;;;;;;;;5014703;28;20850;-82
2022/10/05 09:17:38;;;;;;;20.63;18.63;;;;;;;;;;5014739;28;20403;-82
2022/10/05 09:20:10;;;;;;;21.58;18.20;;;;;;;;;;5014424;28;20365;-82
2022/10/05 09:22:42;;;;;;;15.93;14.45;;;;;;;;;;5014050;28;20383;-82
2022/10/05 09:25:22;;;;;;;15.05;13.85;;;;;;;;;;5014466;28;20464;-82
2022/10/05 09:27:54;;;;;;;16.58;15.07;;;;;;;;;;5014383;28;20385;-82
2022/10/05 09:30:39;;;;;;;16.80;15.40;;;;;;;;;;5010695;28;20393;-82
2022/10/05 09:33:05;;;;;;;15.77;14.45;;;;;;;;;;5011894;28;20373;-82
2022/10/05 09:35:56;;;;;;;16.08;14.60;;;;;;;;;;5001338;28;20420;-82
2022/10/05 09:38:42;;;;;;;19.20;16.53;;;;;;;;;;5011881;28;20389;-82
2022/10/05 09:41:23;;;;;;;26.25;18.65;;;;;;;;;;5004178;28;20463;-82
2022/10/05 09:43:52;;;;;;;16.58;14.98;;;;;;;;;;5009812;28;20389;-82
2022/10/05 09:46:30;;;;;;;17.70;16.10;;;;;;;;;;5012962;28;20464;-82
2022/10/05 09:49:11;;;;;;;14.48;13.30;;;;;;;;;;5013690;28;20438;-82
2022/10/05 09:51:50;;;;;;;16.67;15.20;;;;;;;;;;5012204;28;20500;-81
2022/10/05 09:54:35;;;;;;;14.02;12.93;;;;;;;;;;5011463;28;20460;-83
2022/10/05 09:57:04;;;;;;;14.00;12.70;;;;;;;;;;5012165;28;20385;-82
2022/10/05 10:00:00;;;;;;;12.52;11.38;;;;;;;;;;5013394;28;20461;-82
2022/10/05 10:02:32;;;;;;;11.25;10.43;;;;;;;;;;5007111;28;20420;-81
2022/10/05 10:05:08;;;;;;;11.32;10.35;;;;;;;;;;4995821;28;20443;-82
2022/10/05 10:07:58;;;;;;;10.85;10.05;;;;;;;;;;5013379;28;20392;-81
2022/10/05 10:10:42;;;;;;;11.90;10.25;;;;;;;;;;5008334;28;20417;-82
2022/10/05 10:13:27;;;;;;;9.50;8.73;;;;;;;;;;5012581;28;20483;-82
2022/10/05 10:16:12;;;;;;;9.13;8.43;;;;;;;;;;5004676;28;20485;-82
2022/10/05 10:18:54;;;;;;;8.88;8.23;;;;;;;;;;5004308;28;20878;-82
2022/10/05 10:21:41;;;;;;;9.07;8.38;;;;;;;;;;5013070;28;20783;-82
2022/10/05 10:24:16;;;;;;;8.85;8.20;;;;;;;;;;5004840;28;20382;-81
2022/10/05 10:26:55;;;;;;;9.48;8.77;;;;;;;;;;5011646;28;20391;-82
2022/10/05 10:29:32;;;;;;;9.60;8.80;;;;;;;;;;5001873;28;20422;-82
2022/10/05 10:32:04;;;;;;;9.13;8.32;;;;;;;;;;5016249;28;20375;-81
2022/10/05 10:34:30;;;;;;;10.55;9.55;;;;;;;;;;5008864;28;20414;-81
2022/10/05 10:37:15;;;;;;;9.43;8.40;;;;;;;;;;5005393;28;20384;-81
2022/10/05 10:40:00;;;;;;;9.32;8.43;;;;;;;;;;5013065;28;20427;-82
2022/10/05 10:42:26;;;;;;;8.70;8.10;;;;;;;;;;5009022;28;20447;-81
2022/10/05 10:44:57;;;;;;;8.85;8.05;;;;;;;;;;5012292;28;20400;-80
2022/10/05 10:47:42;;;;;;;8.00;7.40;;;;;;;;;;5008922;28;20427;-81
2022/10/05 10:50:11;;;;;;;7.50;6.70;;;;;;;;;;5010837;28;20411;-82
2022/10/05 10:52:53;;;;;;;7.93;7.20;;;;;;;;;;5012631;28;20388;-81
2022/10/05 10:55:25;;;;;;;8.13;7.43;;;;;;;;;;5012457;28;20415;-82
2022/10/05 10:58:11;;;;;;;8.02;7.43;;;;;;;;;;5012381;28;20384;-81
2022/10/05 11:01:02;;;;;;;7.50;6.90;;;;;;;;;;5012301;28;20451;-81
2022/10/05 11:03:31;;;;;;;8.18;6.95;;;;;;;;;;5012167;28;20393;-82
2022/10/05 11:06:06;;;;;;;6.38;5.88;;;;;;;;;;5000340;28;20451;-82
2022/10/05 11:08:35;;;;;;;48.97;10.30;;;;;;;;;;5012621;28;20423;-81
2022/10/05 11:11:04;;;;;;;7.05;6.50;;;;;;;;;;5012604;28;20794;-82
2022/10/05 11:13:30;;;;;;;8.05;5.40;;;;;;;;;;4998750;28;20391;-82
2022/10/05 11:16:09;;;;;;;5.85;5.45;;;;;;;;;;4997401;28;20441;-82
2022/10/05 11:18:53;;;;;;;5.63;5.20;;;;;;;;;;5012483;28;20408;-82
2022/10/05 11:21:29;;;;;;;6.93;5.32;;;;;;;;;;5012196;28;20369;-82
2022/10/05 11:23:57;;;;;;;6.78;4.60;;;;;;;;;;5002618;28;20402;-82
2022/10/05 11:26:33;;;;;;;5.90;5.50;;;;;;;;;;5010616;28;20404;-81
2022/10/05 11:29:21;;;;;;;6.32;5.80;;;;;;;;;;5004561;28;20887;-82
2022/10/05 11:32:12;;;;;;;6.00;5.33;;;;;;;;;;5012172;28;20393;-83
2022/10/05 11:34:58;;;;;;;5.35;4.95;;;;;;;;;;5012163;28;20886;-82
2022/10/05 11:37:35;;;;;;;6.50;5.07;;;;;;;;;;4972142;28;20373;-82
2022/10/05 11:40:26;;;;;;;5.20;4.75;;;;;;;;;;5012120;28;20733;-82
2022/10/05 11:43:16;;;;;;;5.65;5.10;;;;;;;;;;5012367;28;20377;-82
2022/10/05 11:45:51;;;;;;;5.38;4.97;;;;;;;;;;5012173;28;20412;-82
2022/10/05 11:48:19;;;;;;;6.35;5.85;;;;;;;;;;5011967;28;20489;-82
2022/10/05 11:50:48;;;;;;;5.63;5.22;;;;;;;;;;5012160;28;20742;-82
2022/10/05 11:53:17;;;;;;;9.10;5.93;;;;;;;;;;5011954;28;20484;-82
2022/10/05 11:55:48;;;;;;;6.30;5.10;;;;;;;;;;5011863;28;20470;-82
2022/10/05 11:58:14;;;;;;;5.15;4.65;;;;;;;;;;5011992;28;20438;-83
2022/10/05 12:00:45;;;;;;;7.63;5.05;;;;;;;;;;5011665;28;20463;-82
2022/10/05 12:03:14;;;;;;;6.00;5.40;;;;;;;;;;5011963;28;20484;-82
2022/10/05 12:06:07;;;;;;;6.07;5.38;;;;;;;;;;5011767;28;20897;-82
2022/10/05 12:08:45;;;;;;;15.63;6.33;;;;;;;;;;4982401;28;20984;-83
2022/10/05 12:11:29;;;;;;;5.70;5.10;;;;;;;;;;5014961;28;20997;-82
2022/10/05 12:14:01;;;;;;;12.90;4.78;;;;;;;;;;5015425;28;20396;-83
2022/10/05 12:16:40;;;;;;;12.43;5.05;;;;;;;;;;5010474;28;20943;-82
2022/10/05 12:19:12;;;;;;;5.35;4.70;;;;;;;;;;5009968;28;20413;-83
2022/10/05 12:21:46;;;;;;;9.95;4.88;;;;;;;;;;5004999;28;20527;-82
2022/10/05 12:24:15;;;;;;;5.72;5.13;;;;;;;;;;5015219;28;20393;-83
2022/10/05 12:27:14;;;;;;;5.90;4.93;;;;;;;;;;4997803;28;20396;-82
2022/10/05 12:29:46;;;;;;;6.63;4.90;;;;;;;;;;4955800;28;20397;-83
2022/10/05 12:32:32;;;;;;;5.07;4.68;;;;;;;;;;5015587;28;20519;-82
2022/10/05 12:35:03;;;;;;;4.70;4.30;;;;;;;;;;5014968;28;20462;-82
2022/10/05 12:37:41;;;;;;;4.07;3.78;;;;;;;;;;5016143;28;20463;-82
2022/10/05 12:40:07;;;;;;;4.30;4.00;;;;;;;;;;5014799;28;20381;-83
2022/10/05 12:42:42;;;;;;;4.30;4.00;;;;;;;;;;5014866;28;20623;-83
2022/10/05 12:45:34;;;;;;;6.50;4.75;;;;;;;;;;5015119;28;20381;-83
2022/10/05 12:48:13;;;;;;;4.57;4.07;;;;;;;;;;4984859;28;20464;-83
2022/10/05 12:50:41;;;;;;;4.88;3.65;;;;;;;;;;5014631;28;20389;-82
2022/10/05 12:53:07;;;;;;;3.40;3.20;;;;;;;;;;5014616;28;20384;-83
2022/10/05 12:55:42;;;;;;;3.40;3.10;;;;;;;;;;5014633;28;20431;-83
2022/10/05 12:58:25;;;;;;;4.35;3.95;;;;;;;;;;5014615;28;20862;-82
2022/10/05 13:00:57;;;;;;;5.03;3.97;;;;;;;;;;5014555;28;20423;-83
2022/10/05 13:03:36;;;;;;;3.90;3.50;;;;;;;;;;5014670;28;20428;-83
2022/10/05 13:06:22;;;;;;;3.65;3.30;;;;;;;;;;4996438;28;21455;-83
2022/10/05 13:09:02;;;;;;;10.83;4.20;;;;;;;;;;5014488;28;20453;-83
2022/10/05 13:11:34;;;;;;;3.88;3.58;;;;;;;;;;5014686;28;20849;-84
2022/10/05 13:14:01;;;;;;;3.60;3.30;;;;;;;;;;5014447;28;20377;-83
2022/10/05 13:16:30;;;;;;;4.43;3.30;;;;;;;;;;5014290;28;20409;-83
2022/10/05 13:19:02;;;;;;;4.45;3.80;;;;;;;;;;5014295;28;20391;-83
2022/10/05 13:21:37;;;;;;;4.65;3.85;;;;;;;;;;5014051;28;20373;-82
2022/10/05 13:24:16;;;;;;;5.78;4.82;;;;;;;;;;5014178;28;20408;-83
2022/10/05 13:26:47;;;;;;;7.40;4.97;;;;;;;;;;5014090;28;20858;-84
2022/10/05 13:29:13;;;;;;;5.88;3.40;;;;;;;;;;4996844;28;20472;-83
2022/10/05 13:32:05;;;;;;;3.60;3.30;;;;;;;;;;5014061;28;20385;-83
2022/10/05 13:34:41;;;;;;;3.47;3.17;;;;;;;;;;5010272;28;20496;-83
2022/10/05 13:37:21;;;;;;;4.18;2.65;;;;;;;;;;4996553;28;20400;-82
2022/10/05 13:40:06;;;;;;;3.42;2.80;;;;;;;;;;5013846;28;20893;-83
2022/10/05 13:42:32;;;;;;;2.67;2.47;;;;;;;;;;5013749;28;20369;-83
2022/10/05 13:45:13;;;;;;;66.87;10.20;;;;;;;;;;5013827;28;20450;-83
2022/10/05 13:47:47;;;;;;;6.03;3.88;;;;;;;;;;5013635;28;20447;-83
2022/10/05 13:50:16;;;;;;;4.90;4.40;;;;;;;;;;5013672;28;20399;-83
2022/10/05 13:52:45;;;;;;;3.65;3.25;;;;;;;;;;5013502;28;20400;-83
2022/10/05 13:55:33;;;;;;;8.82;3.55;;;;;;;;;;5013405;28;20550;-83
2022/10/05 13:58:04;;;;;;;4.30;2.00;;;;;;;;;;5013568;28;20467;-83
2022/10/05 14:00:31;;;;;;;2.13;1.60;;;;;;;;;;5013312;28;20738;-83
2022/10/05 14:02:59;;;;;;;2.72;1.90;;;;;;;;;;5013450;28;20395;-83
2022/10/05 14:05:31;;;;;;;5.03;1.90;;;;;;;;;;5013706;28;20384;-84
2022/10/05 14:08:14;;;;;;;2.13;1.38;;;;;;;;;;4995952;28;20456;-83
2022/10/05 14:10:42;;;;;;;1.98;1.50;;;;;;;;;;4992799;28;20757;-83
2022/10/05 14:13:17;;;;;;;3.83;1.40;;;;;;;;;;5013310;28;20385;-83
2022/10/05 14:15:55;;;;;;;5.78;1.65;;;;;;;;;;5013112;28;20495;-83
2022/10/05 14:18:24;;;;;;;4.82;2.15;;;;;;;;;;5013738;28;20859;-82
2022/10/05 14:20:57;;;;;;;5.80;1.98;;;;;;;;;;5012997;28;20377;-83
2022/10/05 14:23:25;;;;;;;2.53;1.70;;;;;;;;;;5013132;28;20400;-83
2022/10/05 14:25:54;;;;;;;2.40;1.70;;;;;;;;;;5013502;28;20403;-83
2022/10/05 14:28:23;;;;;;;3.28;1.63;;;;;;;;;;5010674;28;20383;-84
2022/10/05 14:30:57;;;;;;;4.82;1.98;;;;;;;;;;4995589;28;20392;-83
2022/10/05 14:33:24;;;;;;;2.07;1.80;;;;;;;;;;5012521;28;20924;-83
2022/10/05 14:35:52;;;;;;;2.75;1.65;;;;;;;;;;5012988;28;20913;-83
2022/10/05 14:38:25;;;;;;;2.10;1.70;;;;;;;;;;5012871;28;20385;-83
2022/10/05 14:41:03;;;;;;;2.35;1.70;;;;;;;;;;5012783;28;20403;-83
2022/10/05 14:43:29;;;;;;;3.15;1.70;;;;;;;;;;5012887;28;20416;-84
2022/10/05 14:46:01;;;;;;;1.83;1.38;;;;;;;;;;5012844;28;20384;-83
2022/10/05 14:48:28;;;;;;;2.38;1.67;;;;;;;;;;5012695;28;20393;-82
2022/10/05 14:51:02;;;;;;;4.03;1.50;;;;;;;;;;5012700;28;20409;-83
2022/10/05 14:53:43;;;;;;;5.20;1.85;;;;;;;;;;5012671;28;20406;-83
2022/10/05 14:56:15;;;;;;;2.33;1.60;;;;;;;;;;5012619;28;20408;-83
2022/10/05 14:58:47;;;;;;;3.20;1.67;;;;;;;;;;5012666;28;20377;-83
2022/10/05 15:01:20;;;;;;;1.75;1.40;;;;;;;;;;5012340;28;20436;-83
2022/10/05 15:03:55;;;;;;;1.50;1.38;;;;;;;;;;5012673;28;20377;-83
2022/10/05 15:06:31;;;;;;;2.78;1.77;;;;;;;;;;5012581;28;20450;-83
2022/10/05 15:09:06;;;;;;;3.63;1.63;;;;;;;;;;5012423;28;20416;-82
2022/10/05 15:11:38;;;;;;;1.55;1.38;;;;;;;;;;5012558;28;20463;-83
2022/10/05 15:14:10;;;;;;;2.67;1.70;;;;;;;;;;5012699;28;20415;-83
2022/10/05 15:16:37;;;;;;;4.10;1.50;;;;;;;;;;5012542;28;20389;-83
2022/10/05 15:19:27;;;;;;;3.97;1.60;;;;;;;;;;5012658;28;20381;-83
2022/10/05 15:22:18;;;;;;;2.70;1.77;;;;;;;;;;5002179;28;20385;-83
2022/10/05 15:24:50;;;;;;;4.82;1.90;;;;;;;;;;5012321;28;20430;-83
2022/10/05 15:27:29;;;;;;;5.10;1.70;;;;;;;;;;4994709;28;20962;-83
2022/10/05 15:30:08;;;;;;;5.07;1.60;;;;;;;;;;5012275;28;20407;-82
2022/10/05 15:32:40;;;;;;;3.65;1.48;;;;;;;;;;5012312;28;20384;-83
2022/10/05 15:35:25;;;;;;;3.25;1.63;;;;;;;;;;5012347;28;20950;-83
2022/10/05 15:38:04;;;;;;;10.85;2.17;;;;;;;;;;5012221;28;20401;-82
2022/10/05 15:40:34;;;;;;;2.58;1.50;;;;;;;;;;5012421;28;20392;-83
2022/10/05 15:43:08;;;;;;;1.85;1.40;;;;;;;;;;5012184;28;20383;-83
2022/10/05 15:45:38;;;;;;;2.35;1.42;;;;;;;;;;5014847;28;20388;-83
2022/10/05 15:48:14;;;;;;;3.53;1.58;;;;;;;;;;5016321;28;20385;-83
2022/10/05 15:50:59;;;;;;;2.55;1.58;;;;;;;;;;5016000;28;20385;-83
2022/10/05 15:53:35;;;;;;;4.45;1.83;;;;;;;;;;4998213;28;20762;-83
2022/10/05 15:56:00;;;;;;;2.13;1.70;;;;;;;;;;5015792;28;20401;-83
2022/10/05 15:58:35;;;;;;;2.95;1.80;;;;;;;;;;5015753;28;20932;-83
2022/10/05 16:01:12;;;;;;;3.00;1.55;;;;;;;;;;5015632;28;20416;-83
2022/10/05 16:03:45;;;;;;;1.63;1.30;;;;;;;;;;5011308;28;20470;-82
2022/10/05 16:09:26;;;;;;;2.42;1.70;;;;;;;;;;5015932;28;20365;-83
2022/10/05 16:11:58;;;;;;;1.95;1.48;;;;;;;;;;5015806;28;20380;-83
2022/10/05 16:14:42;;;;;;;3.55;1.80;;;;;;;;;;5015444;28;20412;-83
2022/10/05 16:17:32;;;;;;;2.97;1.75;;;;;;;;;;5015556;28;20858;-83
2022/10/05 16:20:03;;;;;;;5.13;1.60;;;;;;;;;;5000292;28;20386;-83
2022/10/05 16:22:49;;;;;;;4.53;1.90;;;;;;;;;;5015367;28;20425;-83
2022/10/05 16:25:33;;;;;;;4.88;3.10;;;;;;;;;;4981681;28;20385;-83
2022/10/05 16:28:03;;;;;;;4.90;2.20;;;;;;;;;;5015220;28;20438;-83
2022/10/05 16:30:37;;;;;;;4.82;2.50;;;;;;;;;;5015169;28;20388;-83
2022/10/05 16:33:21;;;;;;;3.88;2.60;;;;;;;;;;5015303;28;20388;-83
2022/10/05 16:36:16;;;;;;;2.72;2.05;;;;;;;;;;5015050;28;20436;-83
2022/10/05 16:38:59;;;;;;;2.83;1.85;;;;;;;;;;4998859;28;20385;-83
2022/10/05 16:41:34;;;;;;;3.65;2.08;;;;;;;;;;5015253;28;20394;-83
2022/10/05 16:44:18;;;;;;;4.70;2.33;;;;;;;;;;5014766;28;20377;-83
2022/10/05 16:46:52;;;;;;;3.42;2.10;;;;;;;;;;5014775;28;20408;-83
2022/10/05 16:49:35;;;;;;;2.70;2.50;;;;;;;;;;5014749;28;20389;-83
2022/10/05 16:52:05;;;;;;;4.85;2.72;;;;;;;;;;5014915;28;20381;-83
2022/10/05 16:54:39;;;;;;;4.78;2.90;;;;;;;;;;4996155;28;20397;-83
2022/10/05 16:57:05;;;;;;;7.20;2.90;;;;;;;;;;5014141;28;20373;-83
2022/10/05 16:59:37;;;;;;;3.22;2.88;;;;;;;;;;5014631;28;20377;-83
2022/10/05 17:02:06;;;;;;;7.70;3.20;;;;;;;;;;5013732;28;20401;-83
2022/10/05 17:04:40;;;;;;;4.32;3.38;;;;;;;;;;5010686;28;20399;-83
2022/10/05 17:07:15;;;;;;;9.43;4.10;;;;;;;;;;5012590;28;20373;-83
2022/10/05 17:10:01;;;;;;;5.88;2.85;;;;;;;;;;5011429;28;20385;-83
2022/10/05 17:12:46;;;;;;;6.80;2.40;;;;;;;;;;5008339;28;20427;-84
2022/10/05 17:15:31;;;;;;;8.15;2.90;;;;;;;;;;4996739;28;20408;-84
2022/10/05 17:18:00;;;;;;;7.82;3.08;;;;;;;;;;5012892;28;20432;-83
2022/10/05 17:20:38;;;;;;;4.38;2.70;;;;;;;;;;5014030;28;20468;-83
2022/10/05 17:23:17;;;;;;;13.57;3.45;;;;;;;;;;5014228;28;20393;-84
2022/10/05 17:26:01;;;;;;;136.43;11.27;;;;;;;;;;5012055;28;20399;-81
2022/10/05 17:28:46;;;;;;;35.07;4.47;;;;;;;;;;5010807;28;20743;-84
2022/10/05 17:31:15;;;;;;;7.47;3.13;;;;;;;;;;5010656;28;20402;-84
2022/10/05 17:33:59;;;;;;;5.82;2.40;;;;;;;;;;5009029;28;20774;-83
2022/10/05 17:36:41;;;;;;;4.00;2.65;;;;;;;;;;5009069;28;20491;-83
2022/10/05 17:39:23;;;;;;;5.45;2.72;;;;;;;;;;5008196;28;20377;-83
2022/10/05 17:41:49;;;;;;;6.03;2.90;;;;;;;;;;5001084;28;20754;-83
2022/10/05 17:44:19;;;;;;;8.47;2.77;;;;;;;;;;5000084;28;20402;-83
2022/10/05 17:46:47;;;;;;;4.85;2.97;;;;;;;;;;4998784;28;20479;-83
2022/10/05 17:49:13;;;;;;;5.72;2.47;;;;;;;;;;5012831;28;20381;-82
2022/10/05 17:57:09;;;;;;;4.38;2.60;;;;;;;;;;5013270;28;20399;-83
2022/10/05 17:59:56;;;;;;;6.63;3.00;;;;;;;;;;4996253;28;20899;-83
2022/10/05 18:02:26;;;;;;;6.40;2.83;;;;;;;;;;4993004;28;20456;-82
2022/10/05 18:05:04;;;;;;;5.40;2.58;;;;;;;;;;5005767;28;20377;-84
2022/10/05 18:07:31;;;;;;;9.00;2.90;;;;;;;;;;5013375;28;20381;-83
2022/10/05 18:09:58;;;;;;;5.18;2.67;;;;;;;;;;4991569;28;20415;-83
2022/10/05 18:12:26;;;;;;;6.30;2.28;;;;;;;;;;5013228;28;20392;-83
2022/10/05 18:14:53;;;;;;;15.27;3.00;;;;;;;;;;5014192;28;20456;-84
2022/10/05 18:17:34;;;;;;;7.95;2.80;;;;;;;;;;5018084;28;20381;-83
2022/10/05 18:20:27;;;;;;;6.32;3.03;;;;;;;;;;5004954;28;20386;-83
2022/10/05 18:23:13;;;;;;;7.53;2.90;;;;;;;;;;4998242;28;20742;-83
2022/10/05 18:25:48;;;;;;;7.55;3.08;;;;;;;;;;5012907;28;20377;-84
2022/10/05 18:28:38;;;;;;;5.25;3.05;;;;;;;;;;5012840;28;20472;-84
2022/10/05 18:31:19;;;;;;;6.30;2.65;;;;;;;;;;4987806;28;20397;-83
2022/10/05 18:33:53;;;;;;;7.07;3.00;;;;;;;;;;4995454;28;20874;-81
2022/10/05 18:36:30;;;;;;;8.00;2.95;;;;;;;;;;5006983;28;20420;-84
2022/10/05 18:39:20;;;;;;;4.40;2.33;;;;;;;;;;5004492;28;20475;-83
2022/10/05 18:42:05;;;;;;;5.28;2.50;;;;;;;;;;5010473;28;20475;-83
2022/10/05 18:44:53;;;;;;;4.85;2.40;;;;;;;;;;5012932;28;20377;-84
2022/10/05 18:47:30;;;;;;;3.63;2.43;;;;;;;;;;5013108;28;20399;-84
2022/10/05 18:50:02;;;;;;;3.95;2.70;;;;;;;;;;5026560;28;20404;-83
2022/10/05 18:52:40;;;;;;;6.63;2.83;;;;;;;;;;5003310;28;20390;-83
2022/10/05 18:55:21;;;;;;;5.20;3.30;;;;;;;;;;5011823;28;20413;-84
2022/10/05 18:57:59;;;;;;;4.07;3.03;;;;;;;;;;5006197;28;20391;-85
2022/10/05 19:00:31;;;;;;;5.15;4.03;;;;;;;;;;4993124;28;20390;-84
2022/10/05 19:03:00;;;;;;;6.97;3.60;;;;;;;;;;4994728;28;20406;-84
2022/10/05 19:05:44;;;;;;;4.85;3.65;;;;;;;;;;4991972;28;20414;-83
2022/10/05 19:08:26;;;;;;;7.03;3.60;;;;;;;;;;4992075;28;20898;-84
2022/10/05 19:10:59;;;;;;;7.75;3.67;;;;;;;;;;4988881;28;20383;-83
2022/10/05 19:14:01;;;;;;;4.97;4.57;;;;;;;;;;4998384;28;20449;-83
2022/10/05 19:16:46;;;;;;;5.53;4.05;;;;;;;;;;4979918;28;20418;-84
2022/10/05 19:19:22;;;;;;;11.15;3.70;;;;;;;;;;4992184;28;20395;-84
2022/10/05 19:21:51;;;;;;;7.03;3.45;;;;;;;;;;4999958;28;20440;-83
2022/10/05 19:24:36;;;;;;;4.45;3.70;;;;;;;;;;5003681;28;20380;-83
2022/10/05 19:27:17;;;;;;;5.05;4.18;;;;;;;;;;4997102;28;20389;-84
2022/10/05 19:29:52;;;;;;;5.40;4.90;;;;;;;;;;5000593;28;20475;-85
2022/10/05 19:32:21;;;;;;;5.22;4.72;;;;;;;;;;5014451;28;20472;-83
2022/10/05 19:34:47;;;;;;;4.78;4.38;;;;;;;;;;5014407;28;20491;-84
2022/10/05 19:37:19;;;;;;;6.00;4.80;;;;;;;;;;5008941;28;20492;-79